sensor_id;sensor_type;location;lat;lon;timestamp;temperature;humidity
48860;DHT22;34679;51.436;-2.518;2023-06-04T00:01:21;13.30;99.90
48860;DHT22;34679;51.436;-2.518;2023-06-04T00:03:47;13.20;99.90
48860;DHT22;34679;51.436;-2.518;2023-06-04T00:06:13;13.20;99.90
48860;DHT22;34679;51.436;-2.518;2023-06-04T00:08:39;13.10;99.90
48860;DHT22;34679;51.436;-2.518;2023-06-04T00:11:04;13.10;99.90
48860;DHT22;34679;51.436;-2.518;2023-06-04T00:13:30;13.10;99.90
48860;DHT22;34679;51.436;-2.518;2023-06-04T00:15:56;13.00;99.90
48860;DHT22;34679;51.436;-2.518;2023-06-04T00:18:22;13.00;99.90
48860;DHT22;34679;51.436;-2.518;2023-06-04T00:20:47;13.00;99.90
48860;DHT22;34679;51.436;-2.518;2023-06-04T00:23:13;12.90;99.90
48860;DHT22;34679;51.436;-2.518;2023-06-04T00:25:39;12.90;99.90
48860;DHT22;34679;51.436;-2.518;2023-06-04T00:28:05;12.80;99.90
48860;DHT22;34679;51.436;-2.518;2023-06-04T00:30:30;12.90;99.90
48860;DHT22;34679;51.436;-2.518;2023-06-04T00:32:56;12.80;99.90
48860;DHT22;34679;51.436;-2.518;2023-06-04T00:35:22;12.70;99.90
48860;DHT22;34679;51.436;-2.518;2023-06-04T00:37:48;12.70;99.90
48860;DHT22;34679;51.436;-2.518;2023-06-04T00:40:14;12.70;99.90
48860;DHT22;34679;51.436;-2.518;2023-06-04T00:42:40;12.60;99.90
48860;DHT22;34679;51.436;-2.518;2023-06-04T00:45:06;12.60;99.90
48860;DHT22;34679;51.436;-2.518;2023-06-04T00:47:33;12.60;99.90
48860;DHT22;34679;51.436;-2.518;2023-06-04T00:49:59;12.50;99.90
48860;DHT22;34679;51.436;-2.518;2023-06-04T00:52:25;12.40;99.90
48860;DHT22;34679;51.436;-2.518;2023-06-04T00:54:52;12.30;99.90
48860;DHT22;34679;51.436;-2.518;2023-06-04T00:57:21;12.30;99.90
48860;DHT22;34679;51.436;-2.518;2023-06-04T00:59:47;12.20;99.90
48860;DHT22;34679;51.436;-2.518;2023-06-04T01:02:15;12.30;99.90
48860;DHT22;34679;51.436;-2.518;2023-06-04T01:04:44;12.20;99.90
48860;DHT22;34679;51.436;-2.518;2023-06-04T01:07:13;12.20;99.90
48860;DHT22;34679;51.436;-2.518;2023-06-04T01:09:39;12.10;99.90
48860;DHT22;34679;51.436;-2.518;2023-06-04T01:12:06;12.00;99.90
48860;DHT22;34679;51.436;-2.518;2023-06-04T01:14:33;12.00;99.90
48860;DHT22;34679;51.436;-2.518;2023-06-04T01:17:17;11.90;99.90
48860;DHT22;34679;51.436;-2.518;2023-06-04T01:20:02;11.90;99.90
48860;DHT22;34679;51.436;-2.518;2023-06-04T01:22:42;11.80;99.90
48860;DHT22;34679;51.436;-2.518;2023-06-04T01:25:33;11.80;99.90
48860;DHT22;34679;51.436;-2.518;2023-06-04T01:28:01;11.70;99.90
48860;DHT22;34679;51.436;-2.518;2023-06-04T01:30:31;11.70;99.90
48860;DHT22;34679;51.436;-2.518;2023-06-04T01:32:58;11.60;99.90
48860;DHT22;34679;51.436;-2.518;2023-06-04T01:35:26;11.50;99.90
48860;DHT22;34679;51.436;-2.518;2023-06-04T01:37:52;11.40;99.90
48860;DHT22;34679;51.436;-2.518;2023-06-04T01:40:18;11.40;99.90
48860;DHT22;34679;51.436;-2.518;2023-06-04T01:42:44;11.40;99.90
48860;DHT22;34679;51.436;-2.518;2023-06-04T01:45:12;11.30;99.90
48860;DHT22;34679;51.436;-2.518;2023-06-04T01:47:38;11.30;99.90
48860;DHT22;34679;51.436;-2.518;2023-06-04T01:50:06;11.20;99.90
48860;DHT22;34679;51.436;-2.518;2023-06-04T01:52:40;11.20;99.90
48860;DHT22;34679;51.436;-2.518;2023-06-04T01:55:08;11.20;99.90
48860;DHT22;34679;51.436;-2.518;2023-06-04T01:57:34;11.10;99.90
48860;DHT22;34679;51.436;-2.518;2023-06-04T02:00:01;11.00;99.90
48860;DHT22;34679;51.436;-2.518;2023-06-04T02:02:27;11.00;99.90
48860;DHT22;34679;51.436;-2.518;2023-06-04T02:04:59;11.00;99.90
48860;DHT22;34679;51.436;-2.518;2023-06-04T02:07:25;10.90;99.90
48860;DHT22;34679;51.436;-2.518;2023-06-04T02:09:51;11.00;99.90
48860;DHT22;34679;51.436;-2.518;2023-06-04T02:12:17;10.90;99.90
48860;DHT22;34679;51.436;-2.518;2023-06-04T02:14:43;10.90;99.90
48860;DHT22;34679;51.436;-2.518;2023-06-04T02:17:12;10.80;99.90
48860;DHT22;34679;51.436;-2.518;2023-06-04T02:19:44;10.70;99.90
48860;DHT22;34679;51.436;-2.518;2023-06-04T02:22:13;10.70;99.90
48860;DHT22;34679;51.436;-2.518;2023-06-04T02:24:42;10.70;99.90
48860;DHT22;34679;51.436;-2.518;2023-06-04T02:27:09;10.70;99.90
48860;DHT22;34679;51.436;-2.518;2023-06-04T02:29:36;10.70;99.90
48860;DHT22;34679;51.436;-2.518;2023-06-04T02:32:03;10.70;99.90
48860;DHT22;34679;51.436;-2.518;2023-06-04T02:34:29;10.60;99.90
48860;DHT22;34679;51.436;-2.518;2023-06-04T02:36:54;10.70;99.90
48860;DHT22;34679;51.436;-2.518;2023-06-04T02:39:20;10.60;99.90
48860;DHT22;34679;51.436;-2.518;2023-06-04T02:41:46;10.60;99.90
48860;DHT22;34679;51.436;-2.518;2023-06-04T02:44:12;10.60;99.90
48860;DHT22;34679;51.436;-2.518;2023-06-04T02:46:38;10.60;99.90
48860;DHT22;34679;51.436;-2.518;2023-06-04T02:49:04;10.60;99.90
48860;DHT22;34679;51.436;-2.518;2023-06-04T02:51:29;10.50;99.90
48860;DHT22;34679;51.436;-2.518;2023-06-04T02:53:55;10.40;99.90
48860;DHT22;34679;51.436;-2.518;2023-06-04T02:56:21;10.40;99.90
48860;DHT22;34679;51.436;-2.518;2023-06-04T02:58:51;10.40;99.90
48860;DHT22;34679;51.436;-2.518;2023-06-04T03:01:25;10.40;99.90
48860;DHT22;34679;51.436;-2.518;2023-06-04T03:03:54;10.30;99.90
48860;DHT22;34679;51.436;-2.518;2023-06-04T03:06:21;10.30;99.90
48860;DHT22;34679;51.436;-2.518;2023-06-04T03:08:48;10.20;99.90
48860;DHT22;34679;51.436;-2.518;2023-06-04T03:11:14;10.20;99.90
48860;DHT22;34679;51.436;-2.518;2023-06-04T03:13:40;10.20;99.90
48860;DHT22;34679;51.436;-2.518;2023-06-04T03:16:05;10.20;99.90
48860;DHT22;34679;51.436;-2.518;2023-06-04T03:18:41;10.20;99.90
48860;DHT22;34679;51.436;-2.518;2023-06-04T03:21:08;10.20;99.90
48860;DHT22;34679;51.436;-2.518;2023-06-04T03:23:35;10.10;99.90
48860;DHT22;34679;51.436;-2.518;2023-06-04T03:26:01;10.10;99.90
48860;DHT22;34679;51.436;-2.518;2023-06-04T03:28:28;10.20;99.90
48860;DHT22;34679;51.436;-2.518;2023-06-04T03:30:53;10.10;99.90
48860;DHT22;34679;51.436;-2.518;2023-06-04T03:33:19;10.00;99.90
48860;DHT22;34679;51.436;-2.518;2023-06-04T03:35:45;10.00;99.90
48860;DHT22;34679;51.436;-2.518;2023-06-04T03:38:11;10.00;99.90
48860;DHT22;34679;51.436;-2.518;2023-06-04T03:40:36;10.00;99.90
48860;DHT22;34679;51.436;-2.518;2023-06-04T03:43:02;9.90;99.90
48860;DHT22;34679;51.436;-2.518;2023-06-04T03:45:30;9.90;99.90
48860;DHT22;34679;51.436;-2.518;2023-06-04T03:47:56;9.90;99.90
48860;DHT22;34679;51.436;-2.518;2023-06-04T03:50:21;9.80;99.90
48860;DHT22;34679;51.436;-2.518;2023-06-04T03:52:50;9.80;99.90
48860;DHT22;34679;51.436;-2.518;2023-06-04T03:55:16;9.80;99.90
48860;DHT22;34679;51.436;-2.518;2023-06-04T03:57:42;9.70;99.90
48860;DHT22;34679;51.436;-2.518;2023-06-04T04:00:10;9.70;99.90
48860;DHT22;34679;51.436;-2.518;2023-06-04T04:02:42;9.70;99.90
48860;DHT22;34679;51.436;-2.518;2023-06-04T04:05:08;9.60;99.90
48860;DHT22;34679;51.436;-2.518;2023-06-04T04:07:34;9.70;99.90
48860;DHT22;34679;51.436;-2.518;2023-06-04T04:10:00;9.60;99.90
48860;DHT22;34679;51.436;-2.518;2023-06-04T04:12:26;9.70;99.90
48860;DHT22;34679;51.436;-2.518;2023-06-04T04:14:52;9.60;99.90
48860;DHT22;34679;51.436;-2.518;2023-06-04T04:17:17;9.60;99.90
48860;DHT22;34679;51.436;-2.518;2023-06-04T04:19:43;9.70;99.90
48860;DHT22;34679;51.436;-2.518;2023-06-04T04:22:11;9.70;99.90
48860;DHT22;34679;51.436;-2.518;2023-06-04T04:24:36;9.80;99.90
48860;DHT22;34679;51.436;-2.518;2023-06-04T04:27:03;9.80;99.90
48860;DHT22;34679;51.436;-2.518;2023-06-04T04:29:30;9.90;99.90
48860;DHT22;34679;51.436;-2.518;2023-06-04T04:31:58;10.00;99.90
48860;DHT22;34679;51.436;-2.518;2023-06-04T04:34:26;10.20;99.90
48860;DHT22;34679;51.436;-2.518;2023-06-04T04:36:52;10.40;99.90
48860;DHT22;34679;51.436;-2.518;2023-06-04T04:39:24;10.60;99.90
48860;DHT22;34679;51.436;-2.518;2023-06-04T04:41:51;10.90;99.90
48860;DHT22;34679;51.436;-2.518;2023-06-04T04:44:17;11.20;99.90
48860;DHT22;34679;51.436;-2.518;2023-06-04T04:46:43;11.60;99.90
48860;DHT22;34679;51.436;-2.518;2023-06-04T04:49:09;11.90;99.90
48860;DHT22;34679;51.436;-2.518;2023-06-04T04:51:35;12.20;99.90
48860;DHT22;34679;51.436;-2.518;2023-06-04T04:54:00;12.40;99.90
48860;DHT22;34679;51.436;-2.518;2023-06-04T04:56:27;12.60;99.90
48860;DHT22;34679;51.436;-2.518;2023-06-04T04:58:53;13.30;99.90
48860;DHT22;34679;51.436;-2.518;2023-06-04T05:01:19;13.10;99.90
48860;DHT22;34679;51.436;-2.518;2023-06-04T05:03:45;13.60;99.90
48860;DHT22;34679;51.436;-2.518;2023-06-04T05:06:11;13.90;99.90
48860;DHT22;34679;51.436;-2.518;2023-06-04T05:08:37;14.20;99.90
48860;DHT22;34679;51.436;-2.518;2023-06-04T05:11:03;14.90;99.90
48860;DHT22;34679;51.436;-2.518;2023-06-04T05:13:29;15.20;99.90
48860;DHT22;34679;51.436;-2.518;2023-06-04T05:15:54;15.30;99.90
48860;DHT22;34679;51.436;-2.518;2023-06-04T05:18:20;15.50;99.90
48860;DHT22;34679;51.436;-2.518;2023-06-04T05:20:46;15.40;99.90
48860;DHT22;34679;51.436;-2.518;2023-06-04T05:23:12;15.90;99.90
48860;DHT22;34679;51.436;-2.518;2023-06-04T05:25:39;15.80;99.90
48860;DHT22;34679;51.436;-2.518;2023-06-04T05:28:06;16.00;99.90
48860;DHT22;34679;51.436;-2.518;2023-06-04T05:30:32;16.20;99.90
48860;DHT22;34679;51.436;-2.518;2023-06-04T05:32:59;16.20;99.90
48860;DHT22;34679;51.436;-2.518;2023-06-04T05:35:25;15.90;99.90
48860;DHT22;34679;51.436;-2.518;2023-06-04T05:37:50;15.50;99.90
48860;DHT22;34679;51.436;-2.518;2023-06-04T05:40:22;16.30;99.90
48860;DHT22;34679;51.436;-2.518;2023-06-04T05:42:48;16.80;99.90
48860;DHT22;34679;51.436;-2.518;2023-06-04T05:45:14;16.50;99.90
48860;DHT22;34679;51.436;-2.518;2023-06-04T05:47:40;16.80;99.90
48860;DHT22;34679;51.436;-2.518;2023-06-04T05:50:06;16.80;99.90
48860;DHT22;34679;51.436;-2.518;2023-06-04T05:52:32;16.80;99.90
48860;DHT22;34679;51.436;-2.518;2023-06-04T05:55:02;16.80;99.90
48860;DHT22;34679;51.436;-2.518;2023-06-04T05:57:28;17.00;99.90
48860;DHT22;34679;51.436;-2.518;2023-06-04T05:59:53;16.90;99.90
48860;DHT22;34679;51.436;-2.518;2023-06-04T06:02:19;16.60;99.90
48860;DHT22;34679;51.436;-2.518;2023-06-04T06:04:45;17.00;99.90
48860;DHT22;34679;51.436;-2.518;2023-06-04T06:07:10;17.10;99.90
48860;DHT22;34679;51.436;-2.518;2023-06-04T06:09:36;17.30;99.70
48860;DHT22;34679;51.436;-2.518;2023-06-04T06:12:02;17.70;99.30
48860;DHT22;34679;51.436;-2.518;2023-06-04T06:14:28;16.80;99.70
48860;DHT22;34679;51.436;-2.518;2023-06-04T06:16:53;17.70;99.40
48860;DHT22;34679;51.436;-2.518;2023-06-04T06:19:19;18.00;98.40
48860;DHT22;34679;51.436;-2.518;2023-06-04T06:21:45;18.30;98.20
48860;DHT22;34679;51.436;-2.518;2023-06-04T06:24:11;18.60;97.80
48860;DHT22;34679;51.436;-2.518;2023-06-04T06:26:36;17.70;98.50
48860;DHT22;34679;51.436;-2.518;2023-06-04T06:29:02;18.00;98.20
48860;DHT22;34679;51.436;-2.518;2023-06-04T06:31:28;18.20;98.10
48860;DHT22;34679;51.436;-2.518;2023-06-04T06:33:54;18.70;97.60
48860;DHT22;34679;51.436;-2.518;2023-06-04T06:36:19;19.30;96.90
48860;DHT22;34679;51.436;-2.518;2023-06-04T06:38:45;19.60;96.60
48860;DHT22;34679;51.436;-2.518;2023-06-04T06:41:11;19.60;96.40
48860;DHT22;34679;51.436;-2.518;2023-06-04T06:43:37;20.00;96.10
48860;DHT22;34679;51.436;-2.518;2023-06-04T06:46:03;20.50;95.80
48860;DHT22;34679;51.436;-2.518;2023-06-04T06:48:29;20.50;95.20
48860;DHT22;34679;51.436;-2.518;2023-06-04T06:50:55;20.10;95.70
48860;DHT22;34679;51.436;-2.518;2023-06-04T06:53:21;20.70;95.50
48860;DHT22;34679;51.436;-2.518;2023-06-04T06:55:46;21.00;94.70
48860;DHT22;34679;51.436;-2.518;2023-06-04T06:58:12;21.00;95.00
48860;DHT22;34679;51.436;-2.518;2023-06-04T07:00:38;20.80;95.00
48860;DHT22;34679;51.436;-2.518;2023-06-04T07:03:04;21.40;94.50
48860;DHT22;34679;51.436;-2.518;2023-06-04T07:05:30;21.60;94.20
48860;DHT22;34679;51.436;-2.518;2023-06-04T07:07:56;21.70;94.50
48860;DHT22;34679;51.436;-2.518;2023-06-04T07:10:23;21.60;94.10
48860;DHT22;34679;51.436;-2.518;2023-06-04T07:12:48;21.10;94.70
48860;DHT22;34679;51.436;-2.518;2023-06-04T07:15:14;21.80;93.90
48860;DHT22;34679;51.436;-2.518;2023-06-04T07:17:40;21.20;94.80
48860;DHT22;34679;51.436;-2.518;2023-06-04T07:20:06;21.10;94.60
48860;DHT22;34679;51.436;-2.518;2023-06-04T07:22:34;20.80;94.80
48860;DHT22;34679;51.436;-2.518;2023-06-04T07:24:59;21.10;94.60
48860;DHT22;34679;51.436;-2.518;2023-06-04T07:27:25;21.90;94.30
48860;DHT22;34679;51.436;-2.518;2023-06-04T07:29:52;22.00;93.50
48860;DHT22;34679;51.436;-2.518;2023-06-04T07:32:18;22.00;93.60
48860;DHT22;34679;51.436;-2.518;2023-06-04T07:34:43;21.70;94.10
48860;DHT22;34679;51.436;-2.518;2023-06-04T07:37:09;21.80;94.00
48860;DHT22;34679;51.436;-2.518;2023-06-04T07:39:35;21.60;94.40
48860;DHT22;34679;51.436;-2.518;2023-06-04T07:42:01;20.60;94.90
48860;DHT22;34679;51.436;-2.518;2023-06-04T07:44:27;21.60;94.70
48860;DHT22;34679;51.436;-2.518;2023-06-04T07:46:53;21.80;93.50
48860;DHT22;34679;51.436;-2.518;2023-06-04T07:49:18;21.20;94.10
48860;DHT22;34679;51.436;-2.518;2023-06-04T07:51:45;21.40;94.30
48860;DHT22;34679;51.436;-2.518;2023-06-04T07:54:11;22.20;93.80
48860;DHT22;34679;51.436;-2.518;2023-06-04T07:56:39;21.90;93.80
48860;DHT22;34679;51.436;-2.518;2023-06-04T07:59:05;20.70;94.50
48860;DHT22;34679;51.436;-2.518;2023-06-04T08:01:31;21.20;94.30
48860;DHT22;34679;51.436;-2.518;2023-06-04T08:03:57;21.10;94.50
48860;DHT22;34679;51.436;-2.518;2023-06-04T08:06:24;21.80;93.50
48860;DHT22;34679;51.436;-2.518;2023-06-04T08:08:52;21.50;93.90
48860;DHT22;34679;51.436;-2.518;2023-06-04T08:11:18;22.50;93.40
48860;DHT22;34679;51.436;-2.518;2023-06-04T08:13:44;22.90;92.90
48860;DHT22;34679;51.436;-2.518;2023-06-04T08:16:09;22.70;93.30
48860;DHT22;34679;51.436;-2.518;2023-06-04T08:18:39;23.20;92.90
48860;DHT22;34679;51.436;-2.518;2023-06-04T08:21:09;23.70;92.10
48860;DHT22;34679;51.436;-2.518;2023-06-04T08:23:36;23.50;91.70
48860;DHT22;34679;51.436;-2.518;2023-06-04T08:26:02;22.70;92.40
48860;DHT22;34679;51.436;-2.518;2023-06-04T08:28:27;23.80;92.40
48860;DHT22;34679;51.436;-2.518;2023-06-04T08:30:53;23.70;91.80
48860;DHT22;34679;51.436;-2.518;2023-06-04T08:33:19;23.60;91.50
48860;DHT22;34679;51.436;-2.518;2023-06-04T08:35:44;24.00;91.60
48860;DHT22;34679;51.436;-2.518;2023-06-04T08:38:10;23.60;91.60
48860;DHT22;34679;51.436;-2.518;2023-06-04T08:40:36;21.90;92.90
48860;DHT22;34679;51.436;-2.518;2023-06-04T08:43:01;23.20;92.50
48860;DHT22;34679;51.436;-2.518;2023-06-04T08:45:27;24.00;91.30
48860;DHT22;34679;51.436;-2.518;2023-06-04T08:47:54;23.80;91.60
48860;DHT22;34679;51.436;-2.518;2023-06-04T08:50:22;23.60;91.60
48860;DHT22;34679;51.436;-2.518;2023-06-04T08:52:52;24.00;91.00
48860;DHT22;34679;51.436;-2.518;2023-06-04T08:55:18;24.20;91.00
48860;DHT22;34679;51.436;-2.518;2023-06-04T08:57:44;24.00;90.80
48860;DHT22;34679;51.436;-2.518;2023-06-04T09:00:11;23.80;91.20
48860;DHT22;34679;51.436;-2.518;2023-06-04T09:02:38;23.50;91.40
48860;DHT22;34679;51.436;-2.518;2023-06-04T09:05:04;23.60;91.30
48860;DHT22;34679;51.436;-2.518;2023-06-04T09:07:35;24.00;91.30
48860;DHT22;34679;51.436;-2.518;2023-06-04T09:10:02;24.50;90.80
48860;DHT22;34679;51.436;-2.518;2023-06-04T09:12:29;24.70;90.20
48860;DHT22;34679;51.436;-2.518;2023-06-04T09:14:55;25.00;90.20
48860;DHT22;34679;51.436;-2.518;2023-06-04T09:17:24;25.20;90.00
48860;DHT22;34679;51.436;-2.518;2023-06-04T09:19:51;25.40;90.20
48860;DHT22;34679;51.436;-2.518;2023-06-04T09:22:16;25.20;90.10
48860;DHT22;34679;51.436;-2.518;2023-06-04T09:24:44;25.20;89.80
48860;DHT22;34679;51.436;-2.518;2023-06-04T09:27:21;24.90;89.40
48860;DHT22;34679;51.436;-2.518;2023-06-04T09:29:55;24.80;90.60
48860;DHT22;34679;51.436;-2.518;2023-06-04T09:32:24;24.80;90.10
48860;DHT22;34679;51.436;-2.518;2023-06-04T09:34:52;24.30;90.60
48860;DHT22;34679;51.436;-2.518;2023-06-04T09:37:18;24.60;90.70
48860;DHT22;34679;51.436;-2.518;2023-06-04T09:39:57;24.60;90.30
48860;DHT22;34679;51.436;-2.518;2023-06-04T09:42:23;24.60;90.80
48860;DHT22;34679;51.436;-2.518;2023-06-04T09:44:48;24.00;90.60
48860;DHT22;34679;51.436;-2.518;2023-06-04T09:47:15;24.40;90.50
48860;DHT22;34679;51.436;-2.518;2023-06-04T09:49:44;23.70;90.90
48860;DHT22;34679;51.436;-2.518;2023-06-04T09:52:10;24.30;90.80
48860;DHT22;34679;51.436;-2.518;2023-06-04T09:54:40;23.90;91.20
48860;DHT22;34679;51.436;-2.518;2023-06-04T09:57:17;24.00;91.00
48860;DHT22;34679;51.436;-2.518;2023-06-04T09:59:45;23.50;91.40
48860;DHT22;34679;51.436;-2.518;2023-06-04T10:02:12;24.30;91.40
48860;DHT22;34679;51.436;-2.518;2023-06-04T10:04:41;24.60;90.50
48860;DHT22;34679;51.436;-2.518;2023-06-04T10:07:11;24.80;90.60
48860;DHT22;34679;51.436;-2.518;2023-06-04T10:09:43;24.10;90.80
48860;DHT22;34679;51.436;-2.518;2023-06-04T10:12:13;24.10;91.20
48860;DHT22;34679;51.436;-2.518;2023-06-04T10:14:52;24.00;90.70
48860;DHT22;34679;51.436;-2.518;2023-06-04T10:17:23;23.80;91.50
48860;DHT22;34679;51.436;-2.518;2023-06-04T10:19:51;23.20;91.60
48860;DHT22;34679;51.436;-2.518;2023-06-04T10:22:22;23.50;91.60
48860;DHT22;34679;51.436;-2.518;2023-06-04T10:24:48;23.40;91.90
48860;DHT22;34679;51.436;-2.518;2023-06-04T10:27:17;23.50;91.40
48860;DHT22;34679;51.436;-2.518;2023-06-04T10:29:43;23.10;91.90
48860;DHT22;34679;51.436;-2.518;2023-06-04T10:32:10;22.10;92.70
48860;DHT22;34679;51.436;-2.518;2023-06-04T10:34:36;22.20;92.90
48860;DHT22;34679;51.436;-2.518;2023-06-04T10:37:02;21.90;92.50
48860;DHT22;34679;51.436;-2.518;2023-06-04T10:39:29;22.00;92.20
48860;DHT22;34679;51.436;-2.518;2023-06-04T10:42:04;21.80;92.60
48860;DHT22;34679;51.436;-2.518;2023-06-04T10:44:31;21.70;92.50
48860;DHT22;34679;51.436;-2.518;2023-06-04T10:46:58;21.50;92.60
48860;DHT22;34679;51.436;-2.518;2023-06-04T10:49:28;21.30;93.10
48860;DHT22;34679;51.436;-2.518;2023-06-04T10:51:54;21.40;93.10
48860;DHT22;34679;51.436;-2.518;2023-06-04T10:54:29;21.70;92.10
48860;DHT22;34679;51.436;-2.518;2023-06-04T10:56:55;21.60;92.00
48860;DHT22;34679;51.436;-2.518;2023-06-04T10:59:21;21.40;92.10
48860;DHT22;34679;51.436;-2.518;2023-06-04T11:01:47;21.60;92.10
48860;DHT22;34679;51.436;-2.518;2023-06-04T11:04:23;21.30;92.80
48860;DHT22;34679;51.436;-2.518;2023-06-04T11:07:03;21.70;93.30
48860;DHT22;34679;51.436;-2.518;2023-06-04T11:09:34;21.70;92.80
48860;DHT22;34679;51.436;-2.518;2023-06-04T11:12:00;21.60;92.10
48860;DHT22;34679;51.436;-2.518;2023-06-04T11:14:26;21.60;91.30
48860;DHT22;34679;51.436;-2.518;2023-06-04T11:16:52;21.70;91.50
48860;DHT22;34679;51.436;-2.518;2023-06-04T11:19:18;21.80;91.80
48860;DHT22;34679;51.436;-2.518;2023-06-04T11:21:44;22.00;92.60
48860;DHT22;34679;51.436;-2.518;2023-06-04T11:24:12;21.90;90.80
48860;DHT22;34679;51.436;-2.518;2023-06-04T11:26:37;22.00;91.60
48860;DHT22;34679;51.436;-2.518;2023-06-04T11:29:07;21.50;91.70
48860;DHT22;34679;51.436;-2.518;2023-06-04T11:31:44;21.50;91.80
48860;DHT22;34679;51.436;-2.518;2023-06-04T11:34:10;21.50;92.70
48860;DHT22;34679;51.436;-2.518;2023-06-04T11:36:39;21.60;93.30
48860;DHT22;34679;51.436;-2.518;2023-06-04T11:39:04;21.70;92.80
48860;DHT22;34679;51.436;-2.518;2023-06-04T11:41:35;21.60;92.90
48860;DHT22;34679;51.436;-2.518;2023-06-04T11:44:05;21.70;92.10
48860;DHT22;34679;51.436;-2.518;2023-06-04T11:46:41;21.90;91.60
48860;DHT22;34679;51.436;-2.518;2023-06-04T11:49:11;22.10;91.80
48860;DHT22;34679;51.436;-2.518;2023-06-04T11:51:37;22.10;91.50
48860;DHT22;34679;51.436;-2.518;2023-06-04T11:54:03;22.20;90.80
48860;DHT22;34679;51.436;-2.518;2023-06-04T11:56:29;22.00;91.10
48860;DHT22;34679;51.436;-2.518;2023-06-04T11:58:55;21.80;91.70
48860;DHT22;34679;51.436;-2.518;2023-06-04T12:01:21;22.00;91.90
48860;DHT22;34679;51.436;-2.518;2023-06-04T12:03:48;22.20;92.10
48860;DHT22;34679;51.436;-2.518;2023-06-04T12:06:18;22.20;91.30
48860;DHT22;34679;51.436;-2.518;2023-06-04T12:08:54;21.90;90.60
48860;DHT22;34679;51.436;-2.518;2023-06-04T12:13:55;21.70;91.20
48860;DHT22;34679;51.436;-2.518;2023-06-04T12:16:21;21.80;91.70
48860;DHT22;34679;51.436;-2.518;2023-06-04T12:18:47;21.80;91.00
48860;DHT22;34679;51.436;-2.518;2023-06-04T12:21:23;21.90;91.30
48860;DHT22;34679;51.436;-2.518;2023-06-04T12:26:34;21.90;91.60
48860;DHT22;34679;51.436;-2.518;2023-06-04T12:29:08;21.80;90.90
48860;DHT22;34679;51.436;-2.518;2023-06-04T12:31:36;21.80;90.90
48860;DHT22;34679;51.436;-2.518;2023-06-04T12:34:01;21.80;91.10
48860;DHT22;34679;51.436;-2.518;2023-06-04T12:36:27;21.70;91.10
48860;DHT22;34679;51.436;-2.518;2023-06-04T12:38:58;21.80;90.90
48860;DHT22;34679;51.436;-2.518;2023-06-04T12:41:25;21.90;90.20
48860;DHT22;34679;51.436;-2.518;2023-06-04T12:43:51;21.90;90.90
48860;DHT22;34679;51.436;-2.518;2023-06-04T12:46:17;21.90;91.20
48860;DHT22;34679;51.436;-2.518;2023-06-04T12:48:43;21.90;92.10
48860;DHT22;34679;51.436;-2.518;2023-06-04T12:51:09;22.10;91.60
48860;DHT22;34679;51.436;-2.518;2023-06-04T12:53:41;22.10;91.30
48860;DHT22;34679;51.436;-2.518;2023-06-04T12:56:08;22.10;91.20
48860;DHT22;34679;51.436;-2.518;2023-06-04T12:58:34;22.20;90.80
48860;DHT22;34679;51.436;-2.518;2023-06-04T13:01:00;22.30;91.20
48860;DHT22;34679;51.436;-2.518;2023-06-04T13:03:26;22.40;90.70
48860;DHT22;34679;51.436;-2.518;2023-06-04T13:05:52;22.30;90.50
48860;DHT22;34679;51.436;-2.518;2023-06-04T13:08:22;22.30;91.00
48860;DHT22;34679;51.436;-2.518;2023-06-04T13:10:49;22.30;91.20
48860;DHT22;34679;51.436;-2.518;2023-06-04T13:13:16;22.40;91.20
48860;DHT22;34679;51.436;-2.518;2023-06-04T13:15:45;22.60;89.50
48860;DHT22;34679;51.436;-2.518;2023-06-04T13:18:11;22.50;88.00
48860;DHT22;34679;51.436;-2.518;2023-06-04T13:20:39;22.20;89.20
48860;DHT22;34679;51.436;-2.518;2023-06-04T13:23:05;22.20;90.10
48860;DHT22;34679;51.436;-2.518;2023-06-04T13:25:31;22.40;90.20
48860;DHT22;34679;51.436;-2.518;2023-06-04T13:27:59;22.40;90.20
48860;DHT22;34679;51.436;-2.518;2023-06-04T13:30:25;22.40;90.00
48860;DHT22;34679;51.436;-2.518;2023-06-04T13:32:52;22.50;90.00
48860;DHT22;34679;51.436;-2.518;2023-06-04T13:35:17;22.30;91.00
48860;DHT22;34679;51.436;-2.518;2023-06-04T13:37:43;22.40;91.30
48860;DHT22;34679;51.436;-2.518;2023-06-04T13:40:09;22.50;90.10
48860;DHT22;34679;51.436;-2.518;2023-06-04T13:42:35;22.60;90.60
48860;DHT22;34679;51.436;-2.518;2023-06-04T13:45:01;22.40;90.30
48860;DHT22;34679;51.436;-2.518;2023-06-04T13:47:26;22.40;91.20
48860;DHT22;34679;51.436;-2.518;2023-06-04T13:49:52;22.30;90.50
48860;DHT22;34679;51.436;-2.518;2023-06-04T13:52:18;22.40;90.00
48860;DHT22;34679;51.436;-2.518;2023-06-04T13:54:44;22.60;90.50
48860;DHT22;34679;51.436;-2.518;2023-06-04T13:57:09;22.70;90.30
48860;DHT22;34679;51.436;-2.518;2023-06-04T13:59:40;22.60;90.30
48860;DHT22;34679;51.436;-2.518;2023-06-04T14:02:06;22.70;91.30
48860;DHT22;34679;51.436;-2.518;2023-06-04T14:04:32;22.50;90.30
48860;DHT22;34679;51.436;-2.518;2023-06-04T14:06:58;22.50;90.50
48860;DHT22;34679;51.436;-2.518;2023-06-04T14:09:24;22.50;91.20
48860;DHT22;34679;51.436;-2.518;2023-06-04T14:11:50;22.50;90.50
48860;DHT22;34679;51.436;-2.518;2023-06-04T14:14:20;22.50;90.80
48860;DHT22;34679;51.436;-2.518;2023-06-04T14:16:48;22.60;91.20
48860;DHT22;34679;51.436;-2.518;2023-06-04T14:19:14;22.80;91.10
48860;DHT22;34679;51.436;-2.518;2023-06-04T14:21:44;22.60;91.10
48860;DHT22;34679;51.436;-2.518;2023-06-04T14:24:11;22.60;91.30
48860;DHT22;34679;51.436;-2.518;2023-06-04T14:26:37;22.60;91.80
48860;DHT22;34679;51.436;-2.518;2023-06-04T14:29:03;22.30;90.80
48860;DHT22;34679;51.436;-2.518;2023-06-04T14:31:29;22.50;91.30
48860;DHT22;34679;51.436;-2.518;2023-06-04T14:33:54;22.60;91.50
48860;DHT22;34679;51.436;-2.518;2023-06-04T14:36:20;22.70;91.30
48860;DHT22;34679;51.436;-2.518;2023-06-04T14:38:46;22.60;91.80
48860;DHT22;34679;51.436;-2.518;2023-06-04T14:41:14;22.70;91.40
48860;DHT22;34679;51.436;-2.518;2023-06-04T14:43:40;22.70;91.30
48860;DHT22;34679;51.436;-2.518;2023-06-04T14:46:06;22.80;91.30
48860;DHT22;34679;51.436;-2.518;2023-06-04T14:48:31;22.80;90.40
48860;DHT22;34679;51.436;-2.518;2023-06-04T14:50:57;22.80;90.50
48860;DHT22;34679;51.436;-2.518;2023-06-04T14:53:23;22.70;90.80
48860;DHT22;34679;51.436;-2.518;2023-06-04T14:55:49;22.60;90.80
48860;DHT22;34679;51.436;-2.518;2023-06-04T14:58:15;22.60;91.10
48860;DHT22;34679;51.436;-2.518;2023-06-04T15:00:44;22.70;91.20
48860;DHT22;34679;51.436;-2.518;2023-06-04T15:03:10;22.70;90.20
48860;DHT22;34679;51.436;-2.518;2023-06-04T15:05:37;22.60;91.00
48860;DHT22;34679;51.436;-2.518;2023-06-04T15:08:03;22.70;90.70
48860;DHT22;34679;51.436;-2.518;2023-06-04T15:10:29;22.70;91.30
48860;DHT22;34679;51.436;-2.518;2023-06-04T15:12:56;22.60;90.70
48860;DHT22;34679;51.436;-2.518;2023-06-04T15:15:22;22.50;90.50
48860;DHT22;34679;51.436;-2.518;2023-06-04T15:17:48;22.50;90.70
48860;DHT22;34679;51.436;-2.518;2023-06-04T15:20:15;22.50;91.00
48860;DHT22;34679;51.436;-2.518;2023-06-04T15:22:41;22.50;91.10